sensor_id;sensor_type;location;lat;lon;timestamp;pressure;altitude;pressure_sealevel;temperature;humidity
74975;BME280;68459;50.836;19.138;2023-04-24T00:00:21;97696.22;;;12.16;58.72
74975;BME280;68459;50.836;19.138;2023-04-24T00:03:46;97703.78;;;12.14;58.49
74975;BME280;68459;50.836;19.138;2023-04-24T00:06:50;97703.50;;;12.10;59.16
74975;BME280;68459;50.836;19.138;2023-04-24T00:09:56;97695.81;;;11.97;58.50
74975;BME280;68459;50.836;19.138;2023-04-24T00:12:59;97695.44;;;11.89;59.35
74975;BME280;68459;50.836;19.138;2023-04-24T00:16:04;97688.66;;;11.86;59.65
74975;BME280;68459;50.836;19.138;2023-04-24T00:19:09;97691.34;;;11.86;59.65
74975;BME280;68459;50.836;19.138;2023-04-24T00:22:14;97688.38;;;11.83;59.77
74975;BME280;68459;50.836;19.138;2023-04-24T00:25:18;97686.41;;;11.78;60.05
74975;BME280;68459;50.836;19.138;2023-04-24T00:28:22;97688.50;;;11.71;59.73
74975;BME280;68459;50.836;19.138;2023-04-24T00:31:26;97684.16;;;11.70;59.32
74975;BME280;68459;50.836;19.138;2023-04-24T00:34:31;97687.84;;;11.64;59.74
74975;BME280;68459;50.836;19.138;2023-04-24T00:37:34;97678.44;;;11.66;59.82
74975;BME280;68459;50.836;19.138;2023-04-24T00:40:39;97678.44;;;11.66;60.61
74975;BME280;68459;50.836;19.138;2023-04-24T00:43:43;97673.28;;;11.65;60.05
74975;BME280;68459;50.836;19.138;2023-04-24T00:46:47;97670.84;;;11.63;60.35
74975;BME280;68459;50.836;19.138;2023-04-24T00:49:55;97665.19;;;11.65;60.52
74975;BME280;68459;50.836;19.138;2023-04-24T00:52:59;97671.16;;;11.67;60.27
74975;BME280;68459;50.836;19.138;2023-04-24T00:56:04;97663.31;;;11.65;60.82
74975;BME280;68459;50.836;19.138;2023-04-24T00:59:08;97667.06;;;11.64;60.01
74975;BME280;68459;50.836;19.138;2023-04-24T01:02:13;97659.53;;;11.66;59.88
74975;BME280;68459;50.836;19.138;2023-04-24T01:05:19;97655.50;;;11.69;60.07
74975;BME280;68459;50.836;19.138;2023-04-24T01:08:24;97659.84;;;11.70;60.52
74975;BME280;68459;50.836;19.138;2023-04-24T01:11:31;97652.28;;;11.72;60.47
74975;BME280;68459;50.836;19.138;2023-04-24T01:14:35;97648.03;;;11.76;60.19
74975;BME280;68459;50.836;19.138;2023-04-24T01:17:39;97650.47;;;11.77;60.07
74975;BME280;68459;50.836;19.138;2023-04-24T01:20:45;97650.13;;;11.74;59.74
74975;BME280;68459;50.836;19.138;2023-04-24T01:23:51;97649.56;;;11.72;59.62
74975;BME280;68459;50.836;19.138;2023-04-24T01:26:55;97640.38;;;11.68;60.07
74975;BME280;68459;50.836;19.138;2023-04-24T01:29:59;97644.97;;;11.67;60.17
74975;BME280;68459;50.836;19.138;2023-04-24T01:33:04;97642.50;;;11.66;60.89
74975;BME280;68459;50.836;19.138;2023-04-24T01:36:09;97635.72;;;11.63;60.55
74975;BME280;68459;50.836;19.138;2023-04-24T01:39:15;97632.22;;;11.63;60.02
74975;BME280;68459;50.836;19.138;2023-04-24T01:42:21;97629.50;;;11.63;60.92
74975;BME280;68459;50.836;19.138;2023-04-24T01:45:25;97626.25;;;11.61;60.72
74975;BME280;68459;50.836;19.138;2023-04-24T01:48:29;97631.09;;;11.59;60.06
74975;BME280;68459;50.836;19.138;2023-04-24T01:51:33;97626.50;;;11.59;60.83
74975;BME280;68459;50.836;19.138;2023-04-24T01:54:39;97626.72;;;11.53;60.60
74975;BME280;68459;50.836;19.138;2023-04-24T01:57:42;97613.69;;;11.45;60.93
74975;BME280;68459;50.836;19.138;2023-04-24T02:00:46;97615.50;;;11.39;60.51
74975;BME280;68459;50.836;19.138;2023-04-24T02:03:50;97608.72;;;11.36;61.13
74975;BME280;68459;50.836;19.138;2023-04-24T02:06:54;97616.00;;;11.36;61.10
74975;BME280;68459;50.836;19.138;2023-04-24T02:10:00;97601.13;;;11.33;61.07
74975;BME280;68459;50.836;19.138;2023-04-24T02:13:04;97607.88;;;11.31;61.59
74975;BME280;68459;50.836;19.138;2023-04-24T02:16:08;97603.78;;;11.28;61.14
74975;BME280;68459;50.836;19.138;2023-04-24T02:19:11;97599.38;;;11.22;61.64
74975;BME280;68459;50.836;19.138;2023-04-24T02:22:15;97602.56;;;11.14;61.01
74975;BME280;68459;50.836;19.138;2023-04-24T02:25:21;97596.22;;;11.03;61.80
74975;BME280;68459;50.836;19.138;2023-04-24T02:28:25;97596.41;;;10.97;61.98
74975;BME280;68459;50.836;19.138;2023-04-24T02:31:28;97593.97;;;10.95;61.73
74975;BME280;68459;50.836;19.138;2023-04-24T02:34:32;97590.91;;;10.87;61.69
74975;BME280;68459;50.836;19.138;2023-04-24T02:37:36;97583.81;;;10.81;61.78
74975;BME280;68459;50.836;19.138;2023-04-24T02:40:41;97588.34;;;10.75;62.23
74975;BME280;68459;50.836;19.138;2023-04-24T02:43:45;97590.47;;;10.73;62.35
74975;BME280;68459;50.836;19.138;2023-04-24T02:46:49;97585.56;;;10.70;62.08
74975;BME280;68459;50.836;19.138;2023-04-24T02:49:53;97588.50;;;10.68;61.90
74975;BME280;68459;50.836;19.138;2023-04-24T02:52:56;97590.13;;;10.69;62.20
74975;BME280;68459;50.836;19.138;2023-04-24T02:56:01;97594.16;;;10.67;61.76
74975;BME280;68459;50.836;19.138;2023-04-24T02:59:05;97585.75;;;10.63;62.05
74975;BME280;68459;50.836;19.138;2023-04-24T03:02:09;97591.44;;;10.67;61.72
74975;BME280;68459;50.836;19.138;2023-04-24T03:05:13;97588.50;;;10.68;61.74
74975;BME280;68459;50.836;19.138;2023-04-24T03:08:17;97589.56;;;10.67;61.77
74975;BME280;68459;50.836;19.138;2023-04-24T03:11:22;97588.50;;;10.68;61.79
74975;BME280;68459;50.836;19.138;2023-04-24T03:14:27;97589.31;;;10.69;61.48
74975;BME280;68459;50.836;19.138;2023-04-24T03:17:33;97582.06;;;10.69;61.68
74975;BME280;68459;50.836;19.138;2023-04-24T03:20:37;97587.19;;;10.71;61.35
74975;BME280;68459;50.836;19.138;2023-04-24T03:23:42;97589.66;;;10.73;60.86
74975;BME280;68459;50.836;19.138;2023-04-24T03:26:47;97588.59;;;10.74;60.91
74975;BME280;68459;50.836;19.138;2023-04-24T03:30:14;97579.03;;;10.66;61.25
74975;BME280;68459;50.836;19.138;2023-04-24T03:33:26;97577.09;;;10.61;61.72
74975;BME280;68459;50.836;19.138;2023-04-24T03:36:35;97583.25;;;10.57;61.42
74975;BME280;68459;50.836;19.138;2023-04-24T03:39:41;97579.97;;;10.55;61.33
74975;BME280;68459;50.836;19.138;2023-04-24T03:42:47;97575.88;;;10.52;61.51
74975;BME280;68459;50.836;19.138;2023-04-24T03:45:52;97580.75;;;10.50;61.51
74975;BME280;68459;50.836;19.138;2023-04-24T03:48:56;97580.22;;;10.53;61.48
74975;BME280;68459;50.836;19.138;2023-04-24T03:52:05;97580.53;;;10.57;61.15
74975;BME280;68459;50.836;19.138;2023-04-24T03:55:08;97579.84;;;10.66;61.08
74975;BME280;68459;50.836;19.138;2023-04-24T03:58:20;97581.88;;;10.76;61.00
74975;BME280;68459;50.836;19.138;2023-04-24T04:01:25;97590.00;;;10.81;60.60
74975;BME280;68459;50.836;19.138;2023-04-24T04:04:37;97590.91;;;10.87;60.43
74975;BME280;68459;50.836;19.138;2023-04-24T04:07:40;97585.06;;;10.95;59.86
74975;BME280;68459;50.836;19.138;2023-04-24T04:10:44;97585.13;;;11.00;60.19
74975;BME280;68459;50.836;19.138;2023-04-24T04:13:49;97593.78;;;11.02;60.40
74975;BME280;68459;50.836;19.138;2023-04-24T04:16:56;97587.25;;;10.98;60.04
74975;BME280;68459;50.836;19.138;2023-04-24T04:20:00;97590.16;;;10.91;60.13
74975;BME280;68459;50.836;19.138;2023-04-24T04:23:09;97587.47;;;10.91;59.97
74975;BME280;68459;50.836;19.138;2023-04-24T04:26:23;97585.00;;;10.90;60.40
74975;BME280;68459;50.836;19.138;2023-04-24T04:29:49;97584.47;;;10.93;59.83
74975;BME280;68459;50.836;19.138;2023-04-24T04:32:54;97589.13;;;10.97;60.36
74975;BME280;68459;50.836;19.138;2023-04-24T04:35:58;97580.59;;;11.05;60.16
74975;BME280;68459;50.836;19.138;2023-04-24T04:39:05;97581.00;;;11.19;60.11
74975;BME280;68459;50.836;19.138;2023-04-24T04:42:23;97576.81;;;11.28;59.14
74975;BME280;68459;50.836;19.138;2023-04-24T04:45:28;97579.84;;;11.37;58.83
74975;BME280;68459;50.836;19.138;2023-04-24T04:48:53;97583.41;;;11.42;58.61
74975;BME280;68459;50.836;19.138;2023-04-24T04:51:59;97587.22;;;11.47;59.26
74975;BME280;68459;50.836;19.138;2023-04-24T04:55:04;97584.00;;;11.50;58.25
74975;BME280;68459;50.836;19.138;2023-04-24T04:58:31;97593.81;;;11.56;58.72
74975;BME280;68459;50.836;19.138;2023-04-24T05:01:38;97588.44;;;11.61;58.44
74975;BME280;68459;50.836;19.138;2023-04-24T05:04:43;97583.91;;;11.66;57.65
74975;BME280;68459;50.836;19.138;2023-04-24T05:07:48;97584.50;;;11.73;57.73
74975;BME280;68459;50.836;19.138;2023-04-24T05:10:52;97574.03;;;11.77;56.75
74975;BME280;68459;50.836;19.138;2023-04-24T05:13:56;97587.34;;;11.84;56.71
74975;BME280;68459;50.836;19.138;2023-04-24T05:17:10;97579.50;;;11.87;56.92
74975;BME280;68459;50.836;19.138;2023-04-24T05:20:14;97587.66;;;11.92;57.16
74975;BME280;68459;50.836;19.138;2023-04-24T05:23:18;97582.81;;;11.94;57.87
74975;BME280;68459;50.836;19.138;2023-04-24T05:26:26;97584.47;;;12.00;57.45
74975;BME280;68459;50.836;19.138;2023-04-24T05:29:32;97581.31;;;12.08;56.87
74975;BME280;68459;50.836;19.138;2023-04-24T05:32:39;97578.09;;;12.17;56.54
74975;BME280;68459;50.836;19.138;2023-04-24T05:35:43;97580.88;;;12.27;55.81
74975;BME280;68459;50.836;19.138;2023-04-24T05:38:49;97581.78;;;12.37;55.70
74975;BME280;68459;50.836;19.138;2023-04-24T05:41:53;97581.56;;;12.49;56.16
74975;BME280;68459;50.836;19.138;2023-04-24T05:44:57;97571.34;;;12.61;55.21
74975;BME280;68459;50.836;19.138;2023-04-24T05:48:02;97572.19;;;12.72;55.10
74975;BME280;68459;50.836;19.138;2023-04-24T05:51:09;97570.59;;;12.81;55.00
74975;BME280;68459;50.836;19.138;2023-04-24T05:54:13;97571.44;;;12.92;54.65
74975;BME280;68459;50.836;19.138;2023-04-24T05:57:17;97571.25;;;13.03;54.42
74975;BME280;68459;50.836;19.138;2023-04-24T06:00:28;97559.94;;;13.16;54.34
74975;BME280;68459;50.836;19.138;2023-04-24T06:03:41;97557.00;;;13.28;53.94
74975;BME280;68459;50.836;19.138;2023-04-24T06:06:44;97558.63;;;13.39;53.97
74975;BME280;68459;50.836;19.138;2023-04-24T06:09:48;97565.16;;;13.53;53.36
74975;BME280;68459;50.836;19.138;2023-04-24T06:12:52;97561.91;;;13.72;53.08
74975;BME280;68459;50.836;19.138;2023-04-24T06:15:59;97558.66;;;13.90;52.89
74975;BME280;68459;50.836;19.138;2023-04-24T06:19:09;97557.56;;;14.06;51.90
74975;BME280;68459;50.836;19.138;2023-04-24T06:22:13;97565.94;;;14.25;51.57
74975;BME280;68459;50.836;19.138;2023-04-24T06:25:17;97556.16;;;14.44;50.94
74975;BME280;68459;50.836;19.138;2023-04-24T06:28:21;97551.25;;;14.61;50.36
74975;BME280;68459;50.836;19.138;2023-04-24T06:31:26;97555.22;;;14.79;49.32
74975;BME280;68459;50.836;19.138;2023-04-24T06:34:31;97553.25;;;14.95;49.11
74975;BME280;68459;50.836;19.138;2023-04-24T06:37:36;97551.28;;;15.11;48.58
74975;BME280;68459;50.836;19.138;2023-04-24T06:40:39;97553.38;;;15.29;47.06
74975;BME280;68459;50.836;19.138;2023-04-24T06:43:45;97553.84;;;15.41;47.25
74975;BME280;68459;50.836;19.138;2023-04-24T06:46:49;97550.75;;;15.53;46.29
74975;BME280;68459;50.836;19.138;2023-04-24T06:49:54;97546.63;;;15.65;46.00
74975;BME280;68459;50.836;19.138;2023-04-24T06:52:58;97543.81;;;15.76;45.75
74975;BME280;68459;50.836;19.138;2023-04-24T06:56:02;97543.72;;;15.86;45.45
74975;BME280;68459;50.836;19.138;2023-04-24T06:59:06;97543.38;;;15.97;45.05
74975;BME280;68459;50.836;19.138;2023-04-24T07:02:09;97548.47;;;16.04;45.22
74975;BME280;68459;50.836;19.138;2023-04-24T07:05:15;97549.47;;;16.13;44.82
74975;BME280;68459;50.836;19.138;2023-04-24T07:08:21;97545.34;;;16.21;44.93
74975;BME280;68459;50.836;19.138;2023-04-24T07:11:26;97546.31;;;16.30;44.48
74975;BME280;68459;50.836;19.138;2023-04-24T07:14:31;97540.75;;;16.40;44.65
74975;BME280;68459;50.836;19.138;2023-04-24T07:17:35;97545.81;;;16.52;44.50
74975;BME280;68459;50.836;19.138;2023-04-24T07:20:41;97542.19;;;16.61;43.78
74975;BME280;68459;50.836;19.138;2023-04-24T07:23:45;97546.47;;;16.67;43.68
74975;BME280;68459;50.836;19.138;2023-04-24T07:26:50;97543.72;;;16.72;43.99
74975;BME280;68459;50.836;19.138;2023-04-24T07:29:55;97524.00;;;16.81;43.73
74975;BME280;68459;50.836;19.138;2023-04-24T07:32:58;97537.56;;;16.86;43.45
74975;BME280;68459;50.836;19.138;2023-04-24T07:36:04;97529.00;;;16.92;43.36
74975;BME280;68459;50.836;19.138;2023-04-24T07:39:08;97532.22;;;16.99;42.70
74975;BME280;68459;50.836;19.138;2023-04-24T07:42:12;97527.19;;;17.06;42.60
74975;BME280;68459;50.836;19.138;2023-04-24T07:45:16;97526.63;;;17.09;43.07
74975;BME280;68459;50.836;19.138;2023-04-24T07:48:19;97529.28;;;17.15;42.81
74975;BME280;68459;50.836;19.138;2023-04-24T07:51:25;97526.94;;;17.27;42.08
74975;BME280;68459;50.836;19.138;2023-04-24T07:54:29;97521.91;;;17.34;41.64
74975;BME280;68459;50.836;19.138;2023-04-24T07:57:33;97521.47;;;17.45;41.00
74975;BME280;68459;50.836;19.138;2023-04-24T08:00:37;97523.81;;;17.52;41.02
74975;BME280;68459;50.836;19.138;2023-04-24T08:03:40;97525.88;;;17.60;40.32
74975;BME280;68459;50.836;19.138;2023-04-24T08:06:47;97524.13;;;17.69;39.90
74975;BME280;68459;50.836;19.138;2023-04-24T08:09:50;97536.50;;;17.80;39.17
74975;BME280;68459;50.836;19.138;2023-04-24T08:12:54;97526.00;;;17.88;38.26
74975;BME280;68459;50.836;19.138;2023-04-24T08:15:58;97527.25;;;17.95;38.89
74975;BME280;68459;50.836;19.138;2023-04-24T08:19:02;97542.19;;;17.98;38.28
74975;BME280;68459;50.836;19.138;2023-04-24T08:22:07;97525.53;;;17.99;37.88
74975;BME280;68459;50.836;19.138;2023-04-24T08:25:11;97524.94;;;18.02;38.12
74975;BME280;68459;50.836;19.138;2023-04-24T08:28:15;97510.19;;;18.03;37.88
74975;BME280;68459;50.836;19.138;2023-04-24T08:31:22;97520.22;;;18.08;37.75
74975;BME280;68459;50.836;19.138;2023-04-24T08:34:26;97514.13;;;18.11;37.63
74975;BME280;68459;50.836;19.138;2023-04-24T08:37:32;97512.94;;;18.17;37.59
74975;BME280;68459;50.836;19.138;2023-04-24T08:40:36;97522.03;;;18.26;37.37
74975;BME280;68459;50.836;19.138;2023-04-24T08:43:41;97508.81;;;18.33;37.30
74975;BME280;68459;50.836;19.138;2023-04-24T08:46:47;97506.72;;;18.44;36.94
74975;BME280;68459;50.836;19.138;2023-04-24T08:49:54;97501.63;;;18.51;36.81
74975;BME280;68459;50.836;19.138;2023-04-24T08:53:01;97504.53;;;18.60;36.70
74975;BME280;68459;50.836;19.138;2023-04-24T08:56:06;97501.06;;;18.68;36.04
74975;BME280;68459;50.836;19.138;2023-04-24T08:59:10;97501.50;;;18.75;36.98
74975;BME280;68459;50.836;19.138;2023-04-24T09:02:15;97506.94;;;18.89;36.51
74975;BME280;68459;50.836;19.138;2023-04-24T09:05:21;97501.16;;;19.04;36.42
74975;BME280;68459;50.836;19.138;2023-04-24T09:08:30;97501.22;;;19.12;36.26
74975;BME280;68459;50.836;19.138;2023-04-24T09:11:36;97499.91;;;19.10;35.37
74975;BME280;68459;50.836;19.138;2023-04-24T09:14:40;97499.41;;;19.08;35.87
74975;BME280;68459;50.836;19.138;2023-04-24T09:17:47;97497.38;;;19.13;35.83
74975;BME280;68459;50.836;19.138;2023-04-24T09:21:02;97498.66;;;19.30;36.10
74975;BME280;68459;50.836;19.138;2023-04-24T09:24:16;97496.50;;;19.40;35.46
74975;BME280;68459;50.836;19.138;2023-04-24T09:27:23;97484.44;;;19.41;35.54
74975;BME280;68459;50.836;19.138;2023-04-24T09:30:27;97490.50;;;19.52;34.88
74975;BME280;68459;50.836;19.138;2023-04-24T09:33:32;97485.69;;;19.57;34.37
74975;BME280;68459;50.836;19.138;2023-04-24T09:36:37;97489.13;;;19.63;33.61
74975;BME280;68459;50.836;19.138;2023-04-24T09:39:44;97477.44;;;19.71;34.25
74975;BME280;68459;50.836;19.138;2023-04-24T09:42:52;97466.09;;;19.86;33.02
74975;BME280;68459;50.836;19.138;2023-04-24T09:45:58;97472.81;;;20.03;33.31
74975;BME280;68459;50.836;19.138;2023-04-24T09:49:08;97467.75;;;20.18;33.22
74975;BME280;68459;50.836;19.138;2023-04-24T09:52:15;97465.41;;;20.34;33.19
74975;BME280;68459;50.836;19.138;2023-04-24T09:55:20;97462.72;;;20.51;33.55
74975;BME280;68459;50.836;19.138;2023-04-24T09:58:25;97448.75;;;20.61;32.45
74975;BME280;68459;50.836;19.138;2023-04-24T10:01:30;97450.22;;;20.68;32.83
74975;BME280;68459;50.836;19.138;2023-04-24T10:04:35;97444.97;;;20.97;32.80
74975;BME280;68459;50.836;19.138;2023-04-24T10:07:39;97436.16;;;21.26;32.08
74975;BME280;68459;50.836;19.138;2023-04-24T10:10:45;97434.66;;;21.46;32.15
74975;BME280;68459;50.836;19.138;2023-04-24T10:13:49;97440.78;;;21.77;32.15
74975;BME280;68459;50.836;19.138;2023-04-24T10:16:54;97437.31;;;22.15;31.96
74975;BME280;68459;50.836;19.138;2023-04-24T10:20:00;97435.00;;;22.25;31.29
74975;BME280;68459;50.836;19.138;2023-04-24T10:23:05;97427.88;;;22.33;31.16
74975;BME280;68459;50.836;19.138;2023-04-24T10:26:12;97426.34;;;22.44;30.29
74975;BME280;68459;50.836;19.138;2023-04-24T10:29:19;97426.94;;;22.58;30.66
74975;BME280;68459;50.836;19.138;2023-04-24T10:32:24;97430.78;;;22.95;30.99
74975;BME280;68459;50.836;19.138;2023-04-24T10:35:31;97420.28;;;23.30;30.19
74975;BME280;68459;50.836;19.138;2023-04-24T10:38:37;97413.25;;;23.62;30.19
74975;BME280;68459;50.836;19.138;2023-04-24T10:41:45;97426.59;;;23.72;29.56
74975;BME280;68459;50.836;19.138;2023-04-24T10:44:49;97426.63;;;23.52;28.96
74975;BME280;68459;50.836;19.138;2023-04-24T10:47:56;97413.72;;;23.43;28.14
74975;BME280;68459;50.836;19.138;2023-04-24T10:51:11;97411.63;;;23.61;29.04
74975;BME280;68459;50.836;19.138;2023-04-24T10:54:25;97402.78;;;23.89;28.17
74975;BME280;68459;50.836;19.138;2023-04-24T10:57:31;97399.22;;;23.88;28.03
74975;BME280;68459;50.836;19.138;2023-04-24T11:00:36;97393.94;;;23.83;28.92
74975;BME280;68459;50.836;19.138;2023-04-24T11:03:50;97392.38;;;24.19;28.47
74975;BME280;68459;50.836;19.138;2023-04-24T11:06:58;97387.81;;;24.47;28.46
74975;BME280;68459;50.836;19.138;2023-04-24T11:10:03;97386.16;;;24.82;28.01
74975;BME280;68459;50.836;19.138;2023-04-24T11:13:08;97389.34;;;25.09;28.33
74975;BME280;68459;50.836;19.138;2023-04-24T11:16:15;97381.94;;;25.25;28.54
74975;BME280;68459;50.836;19.138;2023-04-24T11:19:24;97383.09;;;25.24;28.84
74975;BME280;68459;50.836;19.138;2023-04-24T11:22:32;97372.13;;;25.40;29.44
74975;BME280;68459;50.836;19.138;2023-04-24T11:25:38;97381.16;;;25.52;28.47
74975;BME280;68459;50.836;19.138;2023-04-24T11:28:47;97378.97;;;25.46;28.31
74975;BME280;68459;50.836;19.138;2023-04-24T11:31:51;97372.97;;;25.28;28.74
74975;BME280;68459;50.836;19.138;2023-04-24T11:34:57;97368.81;;;25.34;28.37
74975;BME280;68459;50.836;19.138;2023-04-24T11:38:03;97369.06;;;25.29;27.95
74975;BME280;68459;50.836;19.138;2023-04-24T11:41:10;97368.25;;;25.01;27.61
74975;BME280;68459;50.836;19.138;2023-04-24T11:44:20;97370.09;;;24.84;28.04
74975;BME280;68459;50.836;19.138;2023-04-24T11:47:29;97373.44;;;24.66;27.74
74975;BME280;68459;50.836;19.138;2023-04-24T11:50:33;97375.97;;;24.59;28.65
74975;BME280;68459;50.836;19.138;2023-04-24T11:53:36;97371.28;;;24.59;28.45
74975;BME280;68459;50.836;19.138;2023-04-24T11:56:44;97365.50;;;24.52;28.00
74975;BME280;68459;50.836;19.138;2023-04-24T11:59:50;97360.94;;;24.44;28.37
74975;BME280;68459;50.836;19.138;2023-04-24T12:03:04;97366.69;;;24.27;27.82
74975;BME280;68459;50.836;19.138;2023-04-24T12:06:11;97357.56;;;24.14;27.94
74975;BME280;68459;50.836;19.138;2023-04-24T12:09:16;97367.09;;;24.04;27.55
74975;BME280;68459;50.836;19.138;2023-04-24T12:12:19;97363.19;;;24.05;28.04
74975;BME280;68459;50.836;19.138;2023-04-24T12:15:25;97352.41;;;24.00;27.71
74975;BME280;68459;50.836;19.138;2023-04-24T12:18:29;97351.44;;;23.84;28.05
74975;BME280;68459;50.836;19.138;2023-04-24T12:21:33;97350.72;;;23.63;28.01
74975;BME280;68459;50.836;19.138;2023-04-24T12:24:56;97364.47;;;23.51;28.00
74975;BME280;68459;50.836;19.138;2023-04-24T12:28:10;97362.75;;;23.25;28.86
74975;BME280;68459;50.836;19.138;2023-04-24T12:31:17;97349.97;;;22.88;29.86
74975;BME280;68459;50.836;19.138;2023-04-24T12:34:22;97347.38;;;22.62;30.61
74975;BME280;68459;50.836;19.138;2023-04-24T12:37:33;97350.06;;;22.41;32.23
74975;BME280;68459;50.836;19.138;2023-04-24T12:40:39;97350.41;;;22.10;32.24
74975;BME280;68459;50.836;19.138;2023-04-24T12:43:52;97348.56;;;21.76;33.88
74975;BME280;68459;50.836;19.138;2023-04-24T12:46:59;97342.31;;;21.58;32.90
74975;BME280;68459;50.836;19.138;2023-04-24T12:50:02;97341.56;;;21.41;33.68
74975;BME280;68459;50.836;19.138;2023-04-24T12:53:08;97343.03;;;21.12;33.59
74975;BME280;68459;50.836;19.138;2023-04-24T12:56:12;97340.63;;;20.85;34.43
74975;BME280;68459;50.836;19.138;2023-04-24T12:59:15;97334.63;;;20.66;34.44
74975;BME280;68459;50.836;19.138;2023-04-24T13:02:21;97331.56;;;20.41;35.71
74975;BME280;68459;50.836;19.138;2023-04-24T13:05:25;97329.41;;;20.21;35.73
74975;BME280;68459;50.836;19.138;2023-04-24T13:08:29;97328.66;;;19.98;36.04
74975;BME280;68459;50.836;19.138;2023-04-24T13:11:32;97321.84;;;19.78;36.31
74975;BME280;68459;50.836;19.138;2023-04-24T13:14:36;97320.47;;;19.58;36.50
74975;BME280;68459;50.836;19.138;2023-04-24T13:17:42;97314.72;;;19.46;36.52
74975;BME280;68459;50.836;19.138;2023-04-24T13:20:45;97326.75;;;19.37;36.48
74975;BME280;68459;50.836;19.138;2023-04-24T13:23:49;97331.50;;;19.22;37.06
74975;BME280;68459;50.836;19.138;2023-04-24T13:26:53;97338.84;;;19.13;37.35
74975;BME280;68459;50.836;19.138;2023-04-24T13:29:58;97358.53;;;19.02;37.34
74975;BME280;68459;50.836;19.138;2023-04-24T13:33:03;97366.28;;;18.86;37.76
74975;BME280;68459;50.836;19.138;2023-04-24T13:36:07;97357.25;;;18.63;37.96
74975;BME280;68459;50.836;19.138;2023-04-24T13:39:11;97375.66;;;18.44;38.73
74975;BME280;68459;50.836;19.138;2023-04-24T13:42:16;97372.22;;;18.25;38.85
74975;BME280;68459;50.836;19.138;2023-04-24T13:45:20;97366.16;;;18.14;39.09
74975;BME280;68459;50.836;19.138;2023-04-24T13:48:28;97362.13;;;18.11;39.41
74975;BME280;68459;50.836;19.138;2023-04-24T13:51:32;97356.47;;;18.08;39.46
74975;BME280;68459;50.836;19.138;2023-04-24T13:54:36;97361.94;;;18.08;39.23
74975;BME280;68459;50.836;19.138;2023-04-24T13:57:40;97366.69;;;18.02;39.69
74975;BME280;68459;50.836;19.138;2023-04-24T14:00:44;97373.66;;;17.95;40.23
74975;BME280;68459;50.836;19.138;2023-04-24T14:03:49;97378.28;;;17.80;40.62
74975;BME280;68459;50.836;19.138;2023-04-24T14:06:53;97366.44;;;17.71;40.47
74975;BME280;68459;50.836;19.138;2023-04-24T14:09:57;97368.69;;;17.69;40.67
74975;BME280;68459;50.836;19.138;2023-04-24T14:13:01;97365.66;;;17.71;40.48
74975;BME280;68459;50.836;19.138;2023-04-24T14:16:05;97360.41;;;17.74;40.71
74975;BME280;68459;50.836;19.138;2023-04-24T14:19:11;97372.91;;;17.75;40.56
74975;BME280;68459;50.836;19.138;2023-04-24T14:22:14;97366.97;;;17.73;40.62
74975;BME280;68459;50.836;19.138;2023-04-24T14:25:18;97359.41;;;17.70;41.21
74975;BME280;68459;50.836;19.138;2023-04-24T14:28:24;97360.50;;;17.69;41.29
74975;BME280;68459;50.836;19.138;2023-04-24T14:31:29;97360.59;;;17.64;41.89
74975;BME280;68459;50.836;19.138;2023-04-24T14:34:34;97357.09;;;17.59;41.97
74975;BME280;68459;50.836;19.138;2023-04-24T14:37:38;97366.78;;;17.51;43.25
74975;BME280;68459;50.836;19.138;2023-04-24T14:40:43;97363.22;;;17.37;43.25
74975;BME280;68459;50.836;19.138;2023-04-24T14:44:07;97359.97;;;17.35;43.48
74975;BME280;68459;50.836;19.138;2023-04-24T14:47:10;97362.19;;;17.33;44.11
74975;BME280;68459;50.836;19.138;2023-04-24T14:50:16;97359.41;;;17.38;43.72
74975;BME280;68459;50.836;19.138;2023-04-24T14:53:20;97353.06;;;17.42;43.69
74975;BME280;68459;50.836;19.138;2023-04-24T14:56:25;97360.63;;;17.59;43.57
74975;BME280;68459;50.836;19.138;2023-04-24T14:59:28;97357.56;;;17.79;43.32
74975;BME280;68459;50.836;19.138;2023-04-24T15:02:33;97360.53;;;17.97;43.10
74975;BME280;68459;50.836;19.138;2023-04-24T15:05:41;97360.59;;;18.19;42.71
74975;BME280;68459;50.836;19.138;2023-04-24T15:08:45;97361.41;;;18.33;42.41
74975;BME280;68459;50.836;19.138;2023-04-24T15:11:51;97362.31;;;18.29;42.28
74975;BME280;68459;50.836;19.138;2023-04-24T15:14:55;97354.03;;;18.20;42.20
74975;BME280;68459;50.836;19.138;2023-04-24T15:18:00;97355.75;;;18.16;42.38
74975;BME280;68459;50.836;19.138;2023-04-24T15:21:06;97348.38;;;18.16;43.05
74975;BME280;68459;50.836;19.138;2023-04-24T15:24:10;97356.66;;;18.25;42.44
74975;BME280;68459;50.836;19.138;2023-04-24T15:27:14;97357.75;;;18.38;41.97
74975;BME280;68459;50.836;19.138;2023-04-24T15:30:17;97345.06;;;18.56;42.26
74975;BME280;68459;50.836;19.138;2023-04-24T15:33:21;97350.59;;;19.14;41.00
74975;BME280;68459;50.836;19.138;2023-04-24T15:36:26;97335.44;;;19.61;40.32
74975;BME280;68459;50.836;19.138;2023-04-24T15:39:30;97339.97;;;19.97;39.73
74975;BME280;68459;50.836;19.138;2023-04-24T15:42:33;97335.03;;;20.24;39.19
74975;BME280;68459;50.836;19.138;2023-04-24T15:45:37;97330.13;;;19.96;39.54
74975;BME280;68459;50.836;19.138;2023-04-24T15:48:41;97334.81;;;19.64;40.15
74975;BME280;68459;50.836;19.138;2023-04-24T15:51:47;97338.19;;;19.39;40.34
74975;BME280;68459;50.836;19.138;2023-04-24T15:54:50;97341.13;;;19.20;40.82
74975;BME280;68459;50.836;19.138;2023-04-24T15:57:54;97344.16;;;18.96;41.09
74975;BME280;68459;50.836;19.138;2023-04-24T16:00:58;97356.06;;;18.78;41.39
74975;BME280;68459;50.836;19.138;2023-04-24T16:04:02;97346.88;;;18.74;41.19
74975;BME280;68459;50.836;19.138;2023-04-24T16:07:07;97349.53;;;18.65;41.26
74975;BME280;68459;50.836;19.138;2023-04-24T16:10:11;97357.84;;;18.46;42.25